sensor_id;sensor_type;location;lat;lon;timestamp;P1;durP1;ratioP1;P2;durP2;ratioP2
21593;SDS011;10959;51.328;7.322;2023-01-20T00:02:01;23.93;;;18.03;;
21593;SDS011;10959;51.328;7.322;2023-01-20T00:04:28;18.23;;;14.90;;
21593;SDS011;10959;51.328;7.322;2023-01-20T00:06:55;20.20;;;16.00;;
21593;SDS011;10959;51.328;7.322;2023-01-20T00:09:22;24.10;;;17.33;;
21593;SDS011;10959;51.328;7.322;2023-01-20T00:11:48;22.43;;;17.17;;
21593;SDS011;10959;51.328;7.322;2023-01-20T00:14:14;24.40;;;17.13;;
21593;SDS011;10959;51.328;7.322;2023-01-20T00:16:41;20.63;;;16.80;;
21593;SDS011;10959;51.328;7.322;2023-01-20T00:19:08;27.27;;;18.17;;
21593;SDS011;10959;51.328;7.322;2023-01-20T00:21:36;29.23;;;19.57;;
21593;SDS011;10959;51.328;7.322;2023-01-20T00:24:05;20.93;;;16.90;;
21593;SDS011;10959;51.328;7.322;2023-01-20T00:26:31;23.20;;;15.97;;
21593;SDS011;10959;51.328;7.322;2023-01-20T00:28:57;24.40;;;17.27;;
21593;SDS011;10959;51.328;7.322;2023-01-20T00:31:24;23.87;;;17.10;;
21593;SDS011;10959;51.328;7.322;2023-01-20T00:33:53;21.10;;;16.43;;
21593;SDS011;10959;51.328;7.322;2023-01-20T00:36:21;20.93;;;16.93;;
21593;SDS011;10959;51.328;7.322;2023-01-20T00:38:49;21.17;;;15.73;;
21593;SDS011;10959;51.328;7.322;2023-01-20T00:41:17;22.37;;;16.97;;
21593;SDS011;10959;51.328;7.322;2023-01-20T00:43:44;23.07;;;17.03;;
21593;SDS011;10959;51.328;7.322;2023-01-20T00:46:11;24.00;;;16.43;;
21593;SDS011;10959;51.328;7.322;2023-01-20T00:48:37;27.50;;;17.77;;
21593;SDS011;10959;51.328;7.322;2023-01-20T00:51:04;23.67;;;16.30;;
21593;SDS011;10959;51.328;7.322;2023-01-20T00:53:32;24.60;;;17.47;;
21593;SDS011;10959;51.328;7.322;2023-01-20T00:55:59;24.63;;;16.53;;
21593;SDS011;10959;51.328;7.322;2023-01-20T00:58:27;19.37;;;14.97;;
21593;SDS011;10959;51.328;7.322;2023-01-20T01:00:53;24.70;;;17.37;;
21593;SDS011;10959;51.328;7.322;2023-01-20T01:03:21;23.63;;;17.10;;
21593;SDS011;10959;51.328;7.322;2023-01-20T01:05:48;21.43;;;16.23;;
21593;SDS011;10959;51.328;7.322;2023-01-20T01:08:14;25.73;;;18.00;;
21593;SDS011;10959;51.328;7.322;2023-01-20T01:10:41;24.27;;;17.53;;
21593;SDS011;10959;51.328;7.322;2023-01-20T01:13:07;26.30;;;17.50;;
21593;SDS011;10959;51.328;7.322;2023-01-20T01:15:35;29.17;;;17.73;;
21593;SDS011;10959;51.328;7.322;2023-01-20T01:18:01;26.00;;;17.73;;
21593;SDS011;10959;51.328;7.322;2023-01-20T01:20:28;26.87;;;18.30;;
21593;SDS011;10959;51.328;7.322;2023-01-20T01:22:54;30.03;;;19.43;;
21593;SDS011;10959;51.328;7.322;2023-01-20T01:25:21;24.47;;;17.57;;
21593;SDS011;10959;51.328;7.322;2023-01-20T01:27:47;26.80;;;18.40;;
21593;SDS011;10959;51.328;7.322;2023-01-20T01:30:14;25.33;;;18.90;;
21593;SDS011;10959;51.328;7.322;2023-01-20T01:32:41;25.53;;;18.97;;
21593;SDS011;10959;51.328;7.322;2023-01-20T01:35:08;27.97;;;19.23;;
21593;SDS011;10959;51.328;7.322;2023-01-20T01:37:34;29.90;;;19.60;;
21593;SDS011;10959;51.328;7.322;2023-01-20T01:40:01;26.77;;;19.10;;
21593;SDS011;10959;51.328;7.322;2023-01-20T01:42:27;31.00;;;17.70;;
21593;SDS011;10959;51.328;7.322;2023-01-20T01:48:00;23.17;;;17.10;;
21593;SDS011;10959;51.328;7.322;2023-01-20T01:50:30;26.50;;;18.80;;
21593;SDS011;10959;51.328;7.322;2023-01-20T01:53:01;31.33;;;19.93;;
21593;SDS011;10959;51.328;7.322;2023-01-20T01:55:29;29.53;;;19.37;;
21593;SDS011;10959;51.328;7.322;2023-01-20T01:58:00;25.43;;;18.73;;
21593;SDS011;10959;51.328;7.322;2023-01-20T02:00:28;27.47;;;19.63;;
21593;SDS011;10959;51.328;7.322;2023-01-20T02:02:54;26.50;;;20.37;;
21593;SDS011;10959;51.328;7.322;2023-01-20T02:05:23;26.57;;;18.17;;
21593;SDS011;10959;51.328;7.322;2023-01-20T02:07:53;26.13;;;18.43;;
21593;SDS011;10959;51.328;7.322;2023-01-20T02:10:22;26.23;;;17.83;;
21593;SDS011;10959;51.328;7.322;2023-01-20T02:12:49;24.77;;;18.13;;
21593;SDS011;10959;51.328;7.322;2023-01-20T02:15:16;25.63;;;17.60;;
21593;SDS011;10959;51.328;7.322;2023-01-20T02:17:51;25.67;;;17.70;;
21593;SDS011;10959;51.328;7.322;2023-01-20T02:20:38;19.50;;;15.77;;
21593;SDS011;10959;51.328;7.322;2023-01-20T02:23:26;23.80;;;18.10;;
21593;SDS011;10959;51.328;7.322;2023-01-20T02:26:21;25.47;;;18.17;;
21593;SDS011;10959;51.328;7.322;2023-01-20T02:35:02;24.73;;;17.47;;
21593;SDS011;10959;51.328;7.322;2023-01-20T02:37:36;29.13;;;19.93;;
21593;SDS011;10959;51.328;7.322;2023-01-20T02:40:13;27.73;;;19.73;;
21593;SDS011;10959;51.328;7.322;2023-01-20T02:42:52;29.70;;;20.10;;
21593;SDS011;10959;51.328;7.322;2023-01-20T02:45:26;30.57;;;20.67;;
21593;SDS011;10959;51.328;7.322;2023-01-20T02:48:00;28.13;;;19.27;;
21593;SDS011;10959;51.328;7.322;2023-01-20T02:50:33;25.90;;;19.53;;
21593;SDS011;10959;51.328;7.322;2023-01-20T02:53:04;24.17;;;17.63;;
21593;SDS011;10959;51.328;7.322;2023-01-20T02:55:33;27.23;;;18.50;;
21593;SDS011;10959;51.328;7.322;2023-01-20T02:58:04;24.63;;;18.27;;
21593;SDS011;10959;51.328;7.322;2023-01-20T03:00:35;25.03;;;18.73;;
21593;SDS011;10959;51.328;7.322;2023-01-20T03:03:08;26.47;;;19.97;;
21593;SDS011;10959;51.328;7.322;2023-01-20T03:05:38;28.77;;;19.33;;
21593;SDS011;10959;51.328;7.322;2023-01-20T03:08:08;26.07;;;19.53;;
21593;SDS011;10959;51.328;7.322;2023-01-20T03:10:37;26.43;;;20.13;;
21593;SDS011;10959;51.328;7.322;2023-01-20T03:13:08;26.87;;;20.03;;
21593;SDS011;10959;51.328;7.322;2023-01-20T03:15:40;28.60;;;20.37;;
21593;SDS011;10959;51.328;7.322;2023-01-20T03:18:18;28.47;;;19.33;;
21593;SDS011;10959;51.328;7.322;2023-01-20T03:20:45;28.97;;;19.87;;
21593;SDS011;10959;51.328;7.322;2023-01-20T03:23:11;29.43;;;20.83;;
21593;SDS011;10959;51.328;7.322;2023-01-20T03:25:38;30.57;;;20.87;;
21593;SDS011;10959;51.328;7.322;2023-01-20T03:28:06;28.03;;;20.87;;
21593;SDS011;10959;51.328;7.322;2023-01-20T03:30:32;30.17;;;20.97;;
21593;SDS011;10959;51.328;7.322;2023-01-20T03:32:59;29.83;;;20.93;;
21593;SDS011;10959;51.328;7.322;2023-01-20T03:35:28;29.57;;;21.40;;
21593;SDS011;10959;51.328;7.322;2023-01-20T03:37:54;29.40;;;21.07;;
21593;SDS011;10959;51.328;7.322;2023-01-20T03:40:21;26.70;;;20.67;;
21593;SDS011;10959;51.328;7.322;2023-01-20T03:42:51;26.63;;;19.53;;
21593;SDS011;10959;51.328;7.322;2023-01-20T03:45:25;24.87;;;19.70;;
21593;SDS011;10959;51.328;7.322;2023-01-20T03:48:02;30.33;;;21.53;;
21593;SDS011;10959;51.328;7.322;2023-01-20T03:50:38;27.40;;;20.20;;
21593;SDS011;10959;51.328;7.322;2023-01-20T03:53:10;27.30;;;20.33;;
21593;SDS011;10959;51.328;7.322;2023-01-20T03:55:48;27.60;;;21.50;;
21593;SDS011;10959;51.328;7.322;2023-01-20T03:58:21;29.70;;;20.57;;
21593;SDS011;10959;51.328;7.322;2023-01-20T04:00:52;25.80;;;19.50;;
21593;SDS011;10959;51.328;7.322;2023-01-20T04:03:19;26.73;;;19.87;;
21593;SDS011;10959;51.328;7.322;2023-01-20T04:05:51;25.63;;;19.43;;
21593;SDS011;10959;51.328;7.322;2023-01-20T04:08:19;30.00;;;21.00;;
21593;SDS011;10959;51.328;7.322;2023-01-20T04:10:49;29.53;;;21.23;;
21593;SDS011;10959;51.328;7.322;2023-01-20T04:13:17;29.37;;;20.70;;
21593;SDS011;10959;51.328;7.322;2023-01-20T04:15:44;29.57;;;21.93;;
21593;SDS011;10959;51.328;7.322;2023-01-20T04:18:12;29.87;;;20.77;;
21593;SDS011;10959;51.328;7.322;2023-01-20T04:20:40;26.97;;;19.67;;
21593;SDS011;10959;51.328;7.322;2023-01-20T04:23:11;26.27;;;18.77;;
21593;SDS011;10959;51.328;7.322;2023-01-20T04:25:43;30.07;;;20.53;;
21593;SDS011;10959;51.328;7.322;2023-01-20T04:28:09;28.97;;;20.60;;
21593;SDS011;10959;51.328;7.322;2023-01-20T04:30:35;26.53;;;20.20;;
21593;SDS011;10959;51.328;7.322;2023-01-20T04:33:02;29.63;;;20.00;;
21593;SDS011;10959;51.328;7.322;2023-01-20T04:35:28;29.77;;;21.20;;
21593;SDS011;10959;51.328;7.322;2023-01-20T04:37:55;29.93;;;20.50;;
21593;SDS011;10959;51.328;7.322;2023-01-20T04:40:22;28.17;;;20.53;;
21593;SDS011;10959;51.328;7.322;2023-01-20T04:42:49;28.33;;;20.30;;
21593;SDS011;10959;51.328;7.322;2023-01-20T04:45:15;31.70;;;20.37;;
21593;SDS011;10959;51.328;7.322;2023-01-20T04:47:42;27.30;;;19.60;;
21593;SDS011;10959;51.328;7.322;2023-01-20T04:50:09;26.43;;;20.07;;
21593;SDS011;10959;51.328;7.322;2023-01-20T04:52:37;25.03;;;18.90;;
21593;SDS011;10959;51.328;7.322;2023-01-20T04:55:04;24.23;;;17.50;;
21593;SDS011;10959;51.328;7.322;2023-01-20T04:57:32;25.70;;;18.23;;
21593;SDS011;10959;51.328;7.322;2023-01-20T04:59:59;24.60;;;17.20;;
21593;SDS011;10959;51.328;7.322;2023-01-20T05:02:25;24.33;;;16.20;;
21593;SDS011;10959;51.328;7.322;2023-01-20T05:04:52;23.53;;;16.90;;
21593;SDS011;10959;51.328;7.322;2023-01-20T05:07:18;22.47;;;16.03;;
21593;SDS011;10959;51.328;7.322;2023-01-20T05:09:44;24.80;;;15.90;;
21593;SDS011;10959;51.328;7.322;2023-01-20T05:12:11;21.47;;;16.17;;
21593;SDS011;10959;51.328;7.322;2023-01-20T05:14:39;24.13;;;16.10;;
21593;SDS011;10959;51.328;7.322;2023-01-20T05:17:05;21.37;;;15.03;;
21593;SDS011;10959;51.328;7.322;2023-01-20T05:19:31;21.53;;;15.40;;
21593;SDS011;10959;51.328;7.322;2023-01-20T05:21:58;23.47;;;15.63;;
21593;SDS011;10959;51.328;7.322;2023-01-20T05:24:24;25.07;;;16.70;;
21593;SDS011;10959;51.328;7.322;2023-01-20T05:26:51;25.37;;;16.30;;
21593;SDS011;10959;51.328;7.322;2023-01-20T05:29:17;20.77;;;14.77;;
21593;SDS011;10959;51.328;7.322;2023-01-20T05:31:45;22.73;;;15.97;;
21593;SDS011;10959;51.328;7.322;2023-01-20T05:34:11;22.83;;;17.00;;
21593;SDS011;10959;51.328;7.322;2023-01-20T05:36:38;23.20;;;17.43;;
21593;SDS011;10959;51.328;7.322;2023-01-20T05:39:04;23.27;;;16.20;;
21593;SDS011;10959;51.328;7.322;2023-01-20T05:41:31;21.33;;;15.83;;
21593;SDS011;10959;51.328;7.322;2023-01-20T05:43:57;23.53;;;17.03;;
21593;SDS011;10959;51.328;7.322;2023-01-20T05:46:23;26.37;;;17.30;;
21593;SDS011;10959;51.328;7.322;2023-01-20T05:48:51;26.70;;;18.83;;
21593;SDS011;10959;51.328;7.322;2023-01-20T05:51:18;24.37;;;17.73;;
21593;SDS011;10959;51.328;7.322;2023-01-20T05:53:44;24.33;;;18.17;;
21593;SDS011;10959;51.328;7.322;2023-01-20T05:56:11;26.37;;;18.60;;
21593;SDS011;10959;51.328;7.322;2023-01-20T05:58:39;28.97;;;19.70;;
21593;SDS011;10959;51.328;7.322;2023-01-20T06:01:07;27.43;;;18.83;;
21593;SDS011;10959;51.328;7.322;2023-01-20T06:03:35;27.33;;;18.87;;
21593;SDS011;10959;51.328;7.322;2023-01-20T06:06:03;24.27;;;17.43;;
21593;SDS011;10959;51.328;7.322;2023-01-20T06:08:31;24.10;;;17.00;;
21593;SDS011;10959;51.328;7.322;2023-01-20T06:10:58;22.23;;;16.57;;
21593;SDS011;10959;51.328;7.322;2023-01-20T06:13:24;25.50;;;17.40;;
21593;SDS011;10959;51.328;7.322;2023-01-20T06:15:51;22.53;;;15.87;;
21593;SDS011;10959;51.328;7.322;2023-01-20T06:18:18;22.70;;;16.13;;
21593;SDS011;10959;51.328;7.322;2023-01-20T06:20:45;26.47;;;17.00;;
21593;SDS011;10959;51.328;7.322;2023-01-20T06:23:12;24.73;;;16.87;;
21593;SDS011;10959;51.328;7.322;2023-01-20T06:25:39;21.00;;;16.17;;
21593;SDS011;10959;51.328;7.322;2023-01-20T06:28:06;25.70;;;17.10;;
21593;SDS011;10959;51.328;7.322;2023-01-20T06:30:33;24.07;;;16.17;;
21593;SDS011;10959;51.328;7.322;2023-01-20T06:33:00;23.83;;;16.60;;
21593;SDS011;10959;51.328;7.322;2023-01-20T06:35:26;24.37;;;17.83;;
21593;SDS011;10959;51.328;7.322;2023-01-20T06:37:56;24.97;;;16.93;;
21593;SDS011;10959;51.328;7.322;2023-01-20T06:40:24;27.37;;;18.40;;
21593;SDS011;10959;51.328;7.322;2023-01-20T06:42:50;22.07;;;16.63;;
21593;SDS011;10959;51.328;7.322;2023-01-20T06:45:17;27.23;;;17.83;;
21593;SDS011;10959;51.328;7.322;2023-01-20T06:47:46;27.23;;;18.80;;
21593;SDS011;10959;51.328;7.322;2023-01-20T06:50:13;32.87;;;19.47;;
21593;SDS011;10959;51.328;7.322;2023-01-20T06:52:40;27.70;;;18.37;;
21593;SDS011;10959;51.328;7.322;2023-01-20T06:55:07;32.03;;;19.87;;
21593;SDS011;10959;51.328;7.322;2023-01-20T06:57:35;29.47;;;21.23;;
21593;SDS011;10959;51.328;7.322;2023-01-20T07:00:01;32.03;;;21.30;;
21593;SDS011;10959;51.328;7.322;2023-01-20T07:02:28;29.00;;;20.27;;
21593;SDS011;10959;51.328;7.322;2023-01-20T07:04:55;32.30;;;21.27;;
21593;SDS011;10959;51.328;7.322;2023-01-20T07:07:21;32.03;;;21.90;;
21593;SDS011;10959;51.328;7.322;2023-01-20T07:09:47;31.97;;;21.63;;
21593;SDS011;10959;51.328;7.322;2023-01-20T07:12:15;28.20;;;20.07;;
21593;SDS011;10959;51.328;7.322;2023-01-20T07:14:43;28.60;;;19.00;;
21593;SDS011;10959;51.328;7.322;2023-01-20T07:17:10;27.10;;;20.60;;
21593;SDS011;10959;51.328;7.322;2023-01-20T07:19:37;28.37;;;20.87;;
21593;SDS011;10959;51.328;7.322;2023-01-20T07:22:03;31.67;;;20.77;;
21593;SDS011;10959;51.328;7.322;2023-01-20T07:24:30;31.50;;;19.63;;
21593;SDS011;10959;51.328;7.322;2023-01-20T07:26:58;26.07;;;18.73;;
21593;SDS011;10959;51.328;7.322;2023-01-20T07:29:25;30.63;;;21.63;;
21593;SDS011;10959;51.328;7.322;2023-01-20T07:31:53;29.17;;;22.13;;
21593;SDS011;10959;51.328;7.322;2023-01-20T07:34:19;30.60;;;21.10;;
21593;SDS011;10959;51.328;7.322;2023-01-20T07:36:45;28.53;;;20.47;;
21593;SDS011;10959;51.328;7.322;2023-01-20T07:39:12;28.70;;;20.43;;
21593;SDS011;10959;51.328;7.322;2023-01-20T07:41:39;28.67;;;20.27;;
21593;SDS011;10959;51.328;7.322;2023-01-20T07:44:07;27.80;;;21.43;;
21593;SDS011;10959;51.328;7.322;2023-01-20T07:46:34;31.40;;;20.33;;
21593;SDS011;10959;51.328;7.322;2023-01-20T07:49:02;27.77;;;20.20;;
21593;SDS011;10959;51.328;7.322;2023-01-20T07:51:28;26.10;;;19.50;;
21593;SDS011;10959;51.328;7.322;2023-01-20T07:53:55;25.00;;;19.10;;
21593;SDS011;10959;51.328;7.322;2023-01-20T07:56:22;28.77;;;20.50;;
21593;SDS011;10959;51.328;7.322;2023-01-20T07:58:49;26.97;;;19.47;;
21593;SDS011;10959;51.328;7.322;2023-01-20T08:01:16;26.80;;;20.23;;
21593;SDS011;10959;51.328;7.322;2023-01-20T08:03:44;22.17;;;19.17;;
21593;SDS011;10959;51.328;7.322;2023-01-20T08:06:14;27.00;;;19.73;;
21593;SDS011;10959;51.328;7.322;2023-01-20T08:08:42;21.90;;;17.73;;
21593;SDS011;10959;51.328;7.322;2023-01-20T08:11:10;26.10;;;18.77;;
21593;SDS011;10959;51.328;7.322;2023-01-20T08:13:38;26.27;;;18.70;;
21593;SDS011;10959;51.328;7.322;2023-01-20T08:16:06;29.03;;;20.20;;
21593;SDS011;10959;51.328;7.322;2023-01-20T08:18:33;26.80;;;19.50;;
21593;SDS011;10959;51.328;7.322;2023-01-20T08:21:01;23.47;;;18.27;;
21593;SDS011;10959;51.328;7.322;2023-01-20T08:23:31;26.13;;;19.03;;
21593;SDS011;10959;51.328;7.322;2023-01-20T08:25:58;23.63;;;16.37;;
21593;SDS011;10959;51.328;7.322;2023-01-20T08:28:26;22.90;;;17.13;;
21593;SDS011;10959;51.328;7.322;2023-01-20T08:30:53;22.77;;;17.03;;
21593;SDS011;10959;51.328;7.322;2023-01-20T08:33:20;20.37;;;17.70;;
21593;SDS011;10959;51.328;7.322;2023-01-20T08:35:46;24.83;;;16.23;;
21593;SDS011;10959;51.328;7.322;2023-01-20T08:38:13;20.67;;;16.77;;
21593;SDS011;10959;51.328;7.322;2023-01-20T08:40:41;20.27;;;15.53;;
21593;SDS011;10959;51.328;7.322;2023-01-20T08:43:08;19.47;;;14.77;;
21593;SDS011;10959;51.328;7.322;2023-01-20T08:45:34;20.03;;;15.30;;
21593;SDS011;10959;51.328;7.322;2023-01-20T08:48:01;19.50;;;14.00;;
21593;SDS011;10959;51.328;7.322;2023-01-20T08:50:27;18.07;;;14.97;;
21593;SDS011;10959;51.328;7.322;2023-01-20T08:52:53;16.50;;;13.70;;
21593;SDS011;10959;51.328;7.322;2023-01-20T08:55:20;17.20;;;14.33;;
21593;SDS011;10959;51.328;7.322;2023-01-20T08:57:47;18.17;;;14.43;;
21593;SDS011;10959;51.328;7.322;2023-01-20T09:00:14;18.37;;;13.47;;
21593;SDS011;10959;51.328;7.322;2023-01-20T09:02:41;16.07;;;12.13;;
21593;SDS011;10959;51.328;7.322;2023-01-20T09:05:08;18.13;;;13.90;;
21593;SDS011;10959;51.328;7.322;2023-01-20T09:07:35;16.67;;;12.83;;
21593;SDS011;10959;51.328;7.322;2023-01-20T09:10:02;15.80;;;12.27;;
21593;SDS011;10959;51.328;7.322;2023-01-20T09:12:29;16.43;;;13.00;;
21593;SDS011;10959;51.328;7.322;2023-01-20T09:14:56;15.13;;;12.13;;
21593;SDS011;10959;51.328;7.322;2023-01-20T09:17:23;17.97;;;12.83;;
21593;SDS011;10959;51.328;7.322;2023-01-20T09:19:49;16.57;;;12.27;;
21593;SDS011;10959;51.328;7.322;2023-01-20T09:22:16;16.17;;;12.30;;
21593;SDS011;10959;51.328;7.322;2023-01-20T09:24:43;19.83;;;13.27;;
21593;SDS011;10959;51.328;7.322;2023-01-20T09:27:09;14.80;;;12.50;;
21593;SDS011;10959;51.328;7.322;2023-01-20T09:29:35;13.60;;;11.33;;
21593;SDS011;10959;51.328;7.322;2023-01-20T09:32:03;15.83;;;12.53;;
21593;SDS011;10959;51.328;7.322;2023-01-20T09:34:30;13.87;;;12.37;;
21593;SDS011;10959;51.328;7.322;2023-01-20T09:36:57;15.23;;;12.47;;
21593;SDS011;10959;51.328;7.322;2023-01-20T09:39:45;16.77;;;12.83;;
21593;SDS011;10959;51.328;7.322;2023-01-20T09:42:30;14.73;;;13.07;;
21593;SDS011;10959;51.328;7.322;2023-01-20T09:45:23;13.73;;;11.73;;
21593;SDS011;10959;51.328;7.322;2023-01-20T09:48:01;14.87;;;11.40;;
21593;SDS011;10959;51.328;7.322;2023-01-20T09:50:40;13.90;;;10.90;;
21593;SDS011;10959;51.328;7.322;2023-01-20T09:53:38;15.47;;;11.57;;
21593;SDS011;10959;51.328;7.322;2023-01-20T09:56:14;12.80;;;10.83;;
21593;SDS011;10959;51.328;7.322;2023-01-20T09:58:44;13.60;;;12.20;;
21593;SDS011;10959;51.328;7.322;2023-01-20T10:01:14;13.00;;;10.67;;
21593;SDS011;10959;51.328;7.322;2023-01-20T10:03:51;15.87;;;11.60;;
21593;SDS011;10959;51.328;7.322;2023-01-20T10:06:22;14.10;;;11.97;;
21593;SDS011;10959;51.328;7.322;2023-01-20T10:08:56;14.43;;;12.20;;
21593;SDS011;10959;51.328;7.322;2023-01-20T10:11:25;14.83;;;12.00;;
21593;SDS011;10959;51.328;7.322;2023-01-20T10:13:58;12.80;;;11.43;;
21593;SDS011;10959;51.328;7.322;2023-01-20T10:16:32;12.50;;;10.17;;
21593;SDS011;10959;51.328;7.322;2023-01-20T10:19:07;11.33;;;10.07;;
21593;SDS011;10959;51.328;7.322;2023-01-20T10:21:39;11.20;;;9.07;;
21593;SDS011;10959;51.328;7.322;2023-01-20T10:24:09;11.27;;;9.70;;
21593;SDS011;10959;51.328;7.322;2023-01-20T10:26:41;10.30;;;9.20;;
21593;SDS011;10959;51.328;7.322;2023-01-20T10:29:13;10.80;;;8.90;;
21593;SDS011;10959;51.328;7.322;2023-01-20T10:31:46;14.93;;;11.17;;
21593;SDS011;10959;51.328;7.322;2023-01-20T10:34:20;13.30;;;10.80;;
21593;SDS011;10959;51.328;7.322;2023-01-20T10:36:48;14.67;;;11.80;;
21593;SDS011;10959;51.328;7.322;2023-01-20T10:39:24;13.17;;;10.53;;
21593;SDS011;10959;51.328;7.322;2023-01-20T10:41:56;10.00;;;7.90;;
21593;SDS011;10959;51.328;7.322;2023-01-20T10:44:28;10.90;;;9.23;;
21593;SDS011;10959;51.328;7.322;2023-01-20T10:47:01;11.17;;;8.83;;
21593;SDS011;10959;51.328;7.322;2023-01-20T10:52:43;9.90;;;8.67;;
21593;SDS011;10959;51.328;7.322;2023-01-20T10:55:19;8.80;;;7.83;;
21593;SDS011;10959;51.328;7.322;2023-01-20T10:57:53;7.87;;;7.03;;
21593;SDS011;10959;51.328;7.322;2023-01-20T11:00:26;9.93;;;7.33;;
21593;SDS011;10959;51.328;7.322;2023-01-20T11:02:54;9.33;;;6.97;;
21593;SDS011;10959;51.328;7.322;2023-01-20T11:05:25;9.87;;;7.07;;
21593;SDS011;10959;51.328;7.322;2023-01-20T11:07:54;7.93;;;7.03;;
21593;SDS011;10959;51.328;7.322;2023-01-20T11:10:24;7.70;;;6.90;;
21593;SDS011;10959;51.328;7.322;2023-01-20T11:12:52;8.53;;;6.47;;
21593;SDS011;10959;51.328;7.322;2023-01-20T11:15:21;10.67;;;7.43;;
21593;SDS011;10959;51.328;7.322;2023-01-20T11:20:47;10.50;;;7.07;;
21593;SDS011;10959;51.328;7.322;2023-01-20T11:23:19;8.43;;;7.17;;
21593;SDS011;10959;51.328;7.322;2023-01-20T11:25:52;9.30;;;7.10;;
21593;SDS011;10959;51.328;7.322;2023-01-20T11:28:20;10.07;;;7.83;;
21593;SDS011;10959;51.328;7.322;2023-01-20T11:30:49;8.57;;;6.93;;
21593;SDS011;10959;51.328;7.322;2023-01-20T11:33:18;8.80;;;7.57;;
21593;SDS011;10959;51.328;7.322;2023-01-20T11:35:57;10.93;;;7.60;;
21593;SDS011;10959;51.328;7.322;2023-01-20T11:38:25;7.83;;;6.70;;
21593;SDS011;10959;51.328;7.322;2023-01-20T11:40:53;8.93;;;6.73;;
21593;SDS011;10959;51.328;7.322;2023-01-20T11:43:27;9.30;;;7.10;;
21593;SDS011;10959;51.328;7.322;2023-01-20T11:46:12;8.30;;;6.97;;
21593;SDS011;10959;51.328;7.322;2023-01-20T11:48:46;9.73;;;7.03;;
21593;SDS011;10959;51.328;7.322;2023-01-20T11:51:21;8.60;;;7.07;;
21593;SDS011;10959;51.328;7.322;2023-01-20T11:53:49;8.20;;;7.40;;
21593;SDS011;10959;51.328;7.322;2023-01-20T11:56:17;9.13;;;7.97;;
21593;SDS011;10959;51.328;7.322;2023-01-20T11:58:48;9.13;;;7.57;;
21593;SDS011;10959;51.328;7.322;2023-01-20T12:01:20;10.03;;;6.97;;
21593;SDS011;10959;51.328;7.322;2023-01-20T12:03:55;9.33;;;7.93;;
21593;SDS011;10959;51.328;7.322;2023-01-20T12:06:33;9.73;;;7.63;;
21593;SDS011;10959;51.328;7.322;2023-01-20T12:09:08;9.27;;;7.07;;
21593;SDS011;10959;51.328;7.322;2023-01-20T12:11:38;8.10;;;6.87;;
21593;SDS011;10959;51.328;7.322;2023-01-20T12:14:16;10.20;;;7.23;;
21593;SDS011;10959;51.328;7.322;2023-01-20T12:16:51;10.63;;;7.50;;
21593;SDS011;10959;51.328;7.322;2023-01-20T12:19:25;9.33;;;7.37;;
21593;SDS011;10959;51.328;7.322;2023-01-20T12:22:00;7.33;;;6.03;;
21593;SDS011;10959;51.328;7.322;2023-01-20T12:24:31;8.37;;;7.30;;
21593;SDS011;10959;51.328;7.322;2023-01-20T12:27:26;8.80;;;7.73;;
21593;SDS011;10959;51.328;7.322;2023-01-20T12:29:53;8.43;;;6.90;;
21593;SDS011;10959;51.328;7.322;2023-01-20T12:32:23;9.37;;;6.90;;
21593;SDS011;10959;51.328;7.322;2023-01-20T12:34:50;9.20;;;7.50;;
21593;SDS011;10959;51.328;7.322;2023-01-20T12:37:18;9.30;;;7.13;;
21593;SDS011;10959;51.328;7.322;2023-01-20T12:40:06;11.83;;;7.70;;
21593;SDS011;10959;51.328;7.322;2023-01-20T12:42:59;12.67;;;8.17;;
21593;SDS011;10959;51.328;7.322;2023-01-20T12:45:42;9.57;;;7.20;;
21593;SDS011;10959;51.328;7.322;2023-01-20T12:48:21;11.17;;;8.30;;
21593;SDS011;10959;51.328;7.322;2023-01-20T12:50:57;9.20;;;8.03;;
21593;SDS011;10959;51.328;7.322;2023-01-20T12:53:39;10.63;;;8.83;;
21593;SDS011;10959;51.328;7.322;2023-01-20T12:56:25;8.67;;;7.63;;
21593;SDS011;10959;51.328;7.322;2023-01-20T12:59:02;9.70;;;7.77;;
21593;SDS011;10959;51.328;7.322;2023-01-20T13:01:40;9.70;;;8.17;;
21593;SDS011;10959;51.328;7.322;2023-01-20T13:10:27;8.70;;;7.27;;
21593;SDS011;10959;51.328;7.322;2023-01-20T13:13:07;10.77;;;7.60;;
21593;SDS011;10959;51.328;7.322;2023-01-20T13:15:43;8.47;;;7.07;;
21593;SDS011;10959;51.328;7.322;2023-01-20T13:18:22;10.00;;;8.63;;
21593;SDS011;10959;51.328;7.322;2023-01-20T13:20:53;10.97;;;7.87;;
21593;SDS011;10959;51.328;7.322;2023-01-20T13:23:21;8.33;;;6.90;;
21593;SDS011;10959;51.328;7.322;2023-01-20T13:25:51;8.03;;;7.20;;
21593;SDS011;10959;51.328;7.322;2023-01-20T13:28:20;10.87;;;7.63;;
21593;SDS011;10959;51.328;7.322;2023-01-20T13:30:48;11.90;;;7.83;;
21593;SDS011;10959;51.328;7.322;2023-01-20T13:33:25;8.87;;;7.70;;
21593;SDS011;10959;51.328;7.322;2023-01-20T13:35:56;9.93;;;8.40;;
21593;SDS011;10959;51.328;7.322;2023-01-20T13:38:24;10.00;;;8.20;;
21593;SDS011;10959;51.328;7.322;2023-01-20T13:40:56;9.97;;;7.60;;
21593;SDS011;10959;51.328;7.322;2023-01-20T13:43:33;10.60;;;8.77;;
21593;SDS011;10959;51.328;7.322;2023-01-20T13:49:12;8.73;;;7.13;;
21593;SDS011;10959;51.328;7.322;2023-01-20T13:51:45;10.53;;;7.50;;
21593;SDS011;10959;51.328;7.322;2023-01-20T14:00:14;9.60;;;7.27;;
21593;SDS011;10959;51.328;7.322;2023-01-20T14:02:42;11.10;;;8.17;;
21593;SDS011;10959;51.328;7.322;2023-01-20T14:05:20;11.50;;;8.13;;
21593;SDS011;10959;51.328;7.322;2023-01-20T14:07:48;9.97;;;7.53;;
21593;SDS011;10959;51.328;7.322;2023-01-20T14:10:15;10.63;;;8.63;;
21593;SDS011;10959;51.328;7.322;2023-01-20T14:12:44;11.57;;;8.97;;
21593;SDS011;10959;51.328;7.322;2023-01-20T14:15:25;12.37;;;8.50;;
21593;SDS011;10959;51.328;7.322;2023-01-20T14:17:56;10.63;;;7.93;;
21593;SDS011;10959;51.328;7.322;2023-01-20T14:20:25;12.43;;;9.00;;
21593;SDS011;10959;51.328;7.322;2023-01-20T14:22:54;10.87;;;8.93;;
21593;SDS011;10959;51.328;7.322;2023-01-20T14:25:22;10.83;;;9.23;;
21593;SDS011;10959;51.328;7.322;2023-01-20T14:27:51;10.30;;;8.27;;
21593;SDS011;10959;51.328;7.322;2023-01-20T14:30:19;12.20;;;8.53;;
21593;SDS011;10959;51.328;7.322;2023-01-20T14:32:47;10.37;;;8.03;;
21593;SDS011;10959;51.328;7.322;2023-01-20T14:35:15;9.70;;;8.23;;
21593;SDS011;10959;51.328;7.322;2023-01-20T14:37:47;13.17;;;9.07;;
21593;SDS011;10959;51.328;7.322;2023-01-20T14:40:18;10.37;;;8.73;;
21593;SDS011;10959;51.328;7.322;2023-01-20T14:42:57;10.93;;;9.47;;
21593;SDS011;10959;51.328;7.322;2023-01-20T14:45:25;11.30;;;8.43;;
21593;SDS011;10959;51.328;7.322;2023-01-20T14:47:53;11.80;;;8.50;;
21593;SDS011;10959;51.328;7.322;2023-01-20T14:50:21;11.63;;;8.73;;
21593;SDS011;10959;51.328;7.322;2023-01-20T14:52:48;10.37;;;8.57;;
21593;SDS011;10959;51.328;7.322;2023-01-20T14:55:27;10.73;;;8.80;;
21593;SDS011;10959;51.328;7.322;2023-01-20T14:57:56;12.30;;;10.27;;
21593;SDS011;10959;51.328;7.322;2023-01-20T15:00:24;13.47;;;9.90;;
21593;SDS011;10959;51.328;7.322;2023-01-20T15:02:54;12.47;;;10.77;;
21593;SDS011;10959;51.328;7.322;2023-01-20T15:05:29;11.57;;;10.07;;
21593;SDS011;10959;51.328;7.322;2023-01-20T15:08:20;12.87;;;9.47;;
21593;SDS011;10959;51.328;7.322;2023-01-20T15:11:08;12.80;;;10.27;;
21593;SDS011;10959;51.328;7.322;2023-01-20T15:16:38;15.23;;;10.90;;